Time;durP1;ratioP1;P1;durP2;ratioP2;P2;SDS_P1;SDS_P2;PMS_P1;PMS_P2;Temp;Humidity;BMP_temperature;BMP_pressure;BME280_temperature;BME280_humidity;BME280_pressure;Samples;Min_cycle;Max_cycle;Signal;HPM_P1;HPM_P2
2023/03/02 00:01:36;;;;;;;7.93;5.85;;;21.60;48.80;;;;;;5043072;28;20590;-61
2023/03/02 00:04:28;;;;;;;7.18;5.85;;;21.60;48.90;;;;;;5033377;28;20258;-61
2023/03/02 00:07:20;;;;;;;8.15;6.60;;;21.60;48.90;;;;;;5033353;28;20238;-61
2023/03/02 00:10:10;;;;;;;9.93;6.68;;;21.60;48.90;;;;;;5033182;28;20333;-61
2023/03/02 00:12:59;;;;;;;10.30;6.68;;;21.60;48.80;;;;;;5033004;28;20234;-61
2023/03/02 00:15:47;;;;;;;7.10;5.75;;;21.60;48.80;;;;;;5032560;28;20584;-61
2023/03/02 00:18:35;;;;;;;8.90;5.97;;;21.60;48.80;;;;;;5032926;28;20206;-61
2023/03/02 00:21:24;;;;;;;9.77;5.90;;;21.70;48.90;;;;;;5033290;28;20769;-61
2023/03/02 00:24:14;;;;;;;8.15;6.22;;;21.70;48.80;;;;;;5027335;28;20326;-61
2023/03/02 00:27:03;;;;;;;7.10;5.97;;;21.70;48.70;;;;;;5022860;28;20591;-61
2023/03/02 00:29:51;;;;;;;8.40;6.18;;;21.70;48.80;;;;;;5033221;28;20277;-61
2023/03/02 00:32:40;;;;;;;10.48;6.32;;;21.60;48.70;;;;;;5032194;28;20312;-61
2023/03/02 00:35:28;;;;;;;8.70;5.65;;;21.60;48.70;;;;;;5033079;28;20224;-61
2023/03/02 00:38:16;;;;;;;8.73;5.95;;;21.60;48.80;;;;;;5033759;28;20713;-61
2023/03/02 00:41:04;;;;;;;7.10;5.85;;;21.60;48.90;;;;;;5032465;28;20222;-61
2023/03/02 00:43:54;;;;;;;8.13;6.00;;;21.60;48.80;;;;;;5034139;28;20583;-61
2023/03/02 00:46:42;;;;;;;7.50;6.30;;;21.60;48.80;;;;;;5033430;28;20190;-61
2023/03/02 00:49:30;;;;;;;7.72;6.15;;;21.60;48.70;;;;;;5031597;28;20202;-61
2023/03/02 00:52:18;;;;;;;7.15;5.80;;;21.60;48.70;;;;;;5032352;28;20352;-61
2023/03/02 00:55:08;;;;;;;6.93;5.93;;;21.60;48.70;;;;;;5032029;28;20198;-61
2023/03/02 00:57:56;;;;;;;6.47;5.80;;;21.60;48.70;;;;;;5030719;28;20222;-61
2023/03/02 01:00:45;;;;;;;7.35;6.50;;;21.70;66.20;;;;;;5031198;28;20229;-61
2023/03/02 01:03:33;;;;;;;7.75;6.05;;;21.60;48.70;;;;;;5032174;28;20220;-61
2023/03/02 01:06:22;;;;;;;7.40;5.88;;;21.60;48.70;;;;;;5031549;28;20213;-61
2023/03/02 01:09:11;;;;;;;7.93;6.50;;;21.60;48.60;;;;;;5032928;28;20281;-61
2023/03/02 01:11:59;;;;;;;8.90;6.03;;;21.50;48.60;;;;;;5031271;28;20225;-61
2023/03/02 01:14:49;;;;;;;8.35;6.55;;;21.50;48.70;;;;;;5031201;28;20288;-63
2023/03/02 01:17:40;;;;;;;6.70;6.03;;;21.50;48.80;;;;;;5032544;28;20222;-61
2023/03/02 01:20:28;;;;;;;8.13;6.10;;;21.40;48.80;;;;;;5031366;28;20198;-61
2023/03/02 01:23:16;;;;;;;8.43;6.47;;;21.50;48.30;;;;;;5031630;28;20631;-61
2023/03/02 01:26:04;;;;;;;6.78;6.07;;;21.50;48.80;;;;;;5032290;28;20679;-61
2023/03/02 01:28:54;;;;;;;6.35;5.47;;;21.60;48.80;;;;;;5031014;28;20846;-61
2023/03/02 01:31:42;;;;;;;8.75;6.40;;;21.60;48.80;;;;;;5030183;28;20221;-61
2023/03/02 01:34:32;;;;;;;9.88;6.50;;;21.60;48.80;;;;;;5032310;28;20241;-61
2023/03/02 01:37:21;;;;;;;6.30;5.65;;;21.60;48.70;;;;;;5031389;28;20257;-61
2023/03/02 01:40:14;;;;;;;9.18;6.47;;;21.60;48.80;;;;;;5031603;28;20697;-61
2023/03/02 01:43:03;;;;;;;8.88;6.43;;;21.70;48.70;;;;;;5032014;28;20288;-61
2023/03/02 01:45:54;;;;;;;7.55;6.55;;;21.70;48.60;;;;;;5035074;28;20292;-61
2023/03/02 01:48:46;;;;;;;8.88;6.28;;;21.70;48.50;;;;;;5035175;28;20202;-61
2023/03/02 01:51:42;;;;;;;8.73;6.47;;;21.70;48.60;;;;;;5034880;28;20222;-61
2023/03/02 01:54:30;;;;;;;6.72;5.70;;;21.70;48.50;;;;;;5035513;28;20702;-61
2023/03/02 01:57:22;;;;;;;7.72;6.32;;;21.70;48.50;;;;;;5024556;28;20242;-61
2023/03/02 02:00:14;;;;;;;8.63;6.53;;;21.80;48.50;;;;;;5016023;28;20671;-61
2023/03/02 02:03:08;;;;;;;7.35;6.07;;;21.70;48.40;;;;;;5015653;28;20202;-61
2023/03/02 02:06:04;;;;;;;7.90;6.35;;;21.70;48.50;;;;;;5034348;28;20248;-61
2023/03/02 02:08:56;;;;;;;6.35;5.72;;;21.70;48.50;;;;;;5034627;28;20198;-61
2023/03/02 02:11:44;;;;;;;6.85;6.15;;;21.60;48.40;;;;;;5047870;28;20246;-61
2023/03/02 02:14:32;;;;;;;6.80;6.10;;;21.60;48.60;;;;;;5017079;28;20209;-61
2023/03/02 02:17:20;;;;;;;7.40;6.55;;;21.50;48.50;;;;;;5015631;28;20821;-61
2023/03/02 02:20:20;;;;;;;7.05;6.10;;;21.50;48.60;;;;;;5015005;28;20793;-61
2023/03/02 02:23:28;;;;;;;6.63;5.55;;;21.50;48.70;;;;;;5015360;28;20406;-61
2023/03/02 02:26:23;;;;;;;6.72;5.90;;;21.50;48.60;;;;;;5014387;28;20273;-61
2023/03/02 02:29:17;;;;;;;7.15;6.38;;;21.50;48.70;;;;;;5015042;28;20227;-61
2023/03/02 02:32:11;;;;;;;7.13;6.43;;;21.40;48.60;;;;;;5019774;28;20637;-61
2023/03/02 02:35:05;;;;;;;6.35;5.75;;;21.50;48.60;;;;;;5035056;28;20671;-61
2023/03/02 02:37:56;;;;;;;7.85;6.43;;;21.50;48.50;;;;;;5032373;28;20263;-61
2023/03/02 02:40:48;;;;;;;7.05;5.90;;;21.40;66.10;;;;;;5030524;28;20209;-61
2023/03/02 02:43:37;;;;;;;6.55;5.72;;;21.50;48.50;;;;;;5033417;28;20197;-61
2023/03/02 02:46:25;;;;;;;7.50;6.05;;;21.40;48.40;;;;;;5034240;28;20236;-61
2023/03/02 02:49:23;;;;;;;7.55;6.32;;;21.40;48.60;;;;;;5033640;28;20230;-61
2023/03/02 02:52:15;;;;;;;7.15;6.45;;;21.40;48.70;;;;;;5033456;28;20225;-61
2023/03/02 02:55:05;;;;;;;6.80;6.20;;;21.40;48.60;;;;;;5032668;28;20209;-60
2023/03/02 02:57:56;;;;;;;7.15;5.72;;;21.50;48.60;;;;;;5033439;28;20218;-61
2023/03/02 03:00:45;;;;;;;6.65;5.85;;;21.70;66.40;;;;;;5033563;28;20324;-61
2023/03/02 03:03:36;;;;;;;6.43;5.25;;;21.50;48.50;;;;;;5034987;28;20252;-61
2023/03/02 03:06:26;;;;;;;6.63;6.07;;;21.60;48.60;;;;;;5033488;28;20244;-61
2023/03/02 03:09:14;;;;;;;8.75;6.30;;;21.60;48.60;;;;;;5034885;28;20190;-61
2023/03/02 03:12:08;;;;;;;6.63;5.68;;;21.60;48.50;;;;;;5030629;28;20269;-61
2023/03/02 03:14:56;;;;;;;8.18;5.72;;;21.70;48.50;;;;;;5033984;28;20200;-61
2023/03/02 03:17:53;;;;;;;7.20;6.15;;;21.70;48.40;;;;;;5034352;28;20670;-61
2023/03/02 03:20:41;;;;;;;6.53;5.63;;;21.70;65.50;;;;;;5034287;28;20280;-61
2023/03/02 03:23:29;;;;;;;6.65;5.90;;;21.70;48.40;;;;;;5034879;28;20777;-61
2023/03/02 03:26:18;;;;;;;6.88;5.82;;;21.70;48.30;;;;;;5034055;28;20241;-61
2023/03/02 03:29:06;;;;;;;6.72;5.97;;;21.70;48.30;;;;;;5034437;28;20198;-61
2023/03/02 03:31:56;;;;;;;6.70;6.10;;;21.70;48.40;;;;;;5033369;28;20305;-61
2023/03/02 03:34:46;;;;;;;7.25;5.97;;;21.70;48.30;;;;;;5034115;28;20316;-61
2023/03/02 03:37:35;;;;;;;7.10;6.20;;;21.60;48.30;;;;;;5034755;28;20198;-61
2023/03/02 03:40:23;;;;;;;7.30;6.05;;;21.60;48.20;;;;;;5047828;28;20202;-61
2023/03/02 03:43:13;;;;;;;6.35;5.22;;;21.60;48.30;;;;;;5045745;28;20205;-62
2023/03/02 03:46:02;;;;;;;6.20;5.60;;;21.50;48.30;;;;;;5033206;28;20691;-61
2023/03/02 03:48:50;;;;;;;6.72;5.90;;;21.50;48.30;;;;;;5033379;28;20198;-61
2023/03/02 03:51:39;;;;;;;7.78;6.10;;;21.40;48.40;;;;;;5033600;28;20249;-61
2023/03/02 03:54:27;;;;;;;6.95;5.85;;;21.40;48.50;;;;;;5034192;28;20212;-61
2023/03/02 03:57:15;;;;;;;6.63;5.90;;;21.30;48.50;;;;;;5034430;28;20352;-61
2023/03/02 04:00:07;;;;;;;6.80;6.05;;;21.40;48.60;;;;;;5032562;28;20641;-61
2023/03/02 04:02:56;;;;;;;8.95;6.22;;;21.60;48.80;;;;;;5032649;28;20336;-61
2023/03/02 04:05:44;;;;;;;6.35;5.60;;;21.40;48.50;;;;;;5031854;28;20285;-61
2023/03/02 04:08:33;;;;;;;6.85;6.15;;;21.40;48.60;;;;;;5033048;28;20237;-61
2023/03/02 04:11:23;;;;;;;6.40;5.80;;;21.30;48.50;;;;;;5059790;22;20236;-67
2023/03/02 04:14:12;;;;;;;6.35;5.65;;;21.40;48.60;;;;;;5051297;28;20213;-70
2023/03/02 04:17:03;;;;;;;7.38;6.68;;;21.40;48.40;;;;;;5051316;28;20201;-67
2023/03/02 04:19:51;;;;;;;6.80;5.60;;;21.40;48.50;;;;;;5052155;28;20752;-68
2023/03/02 04:22:39;;;;;;;5.88;5.28;;;21.50;48.50;;;;;;5052179;28;20322;-69
2023/03/02 04:25:30;;;;;;;6.07;5.55;;;21.50;48.50;;;;;;5051627;28;20220;-69
2023/03/02 04:28:18;;;;;;;5.97;5.47;;;21.50;48.50;;;;;;5052554;28;20683;-66
2023/03/02 04:31:06;;;;;;;7.28;5.65;;;21.40;65.90;;;;;;5052378;28;20689;-66
2023/03/02 04:33:54;;;;;;;6.20;5.13;;;21.80;48.50;;;;;;5051822;28;20673;-69
2023/03/02 04:36:44;;;;;;;6.70;5.47;;;22.10;48.70;;;;;;5051677;28;20568;-69
2023/03/02 04:39:32;;;;;;;5.85;5.25;;;21.60;48.30;;;;;;5051652;28;20225;-69
2023/03/02 04:42:21;;;;;;;5.43;5.03;;;21.80;48.40;;;;;;5052009;28;20229;-67
2023/03/02 04:45:10;;;;;;;6.63;6.03;;;22.00;48.60;;;;;;5051729;28;20245;-68
2023/03/02 04:47:58;;;;;;;7.13;5.40;;;21.60;48.30;;;;;;5050430;28;20673;-68
2023/03/02 04:50:46;;;;;;;5.60;5.07;;;21.30;48.10;;;;;;5046654;28;20201;-69
2023/03/02 04:53:34;;;;;;;7.72;5.65;;;21.70;48.40;;;;;;5031136;28;20202;-71
2023/03/02 04:56:22;;;;;;;7.45;6.38;;;21.30;48.00;;;;;;5042378;28;20202;-67
2023/03/02 04:59:12;;;;;;;6.50;5.90;;;21.40;47.60;;;;;;5051439;28;20224;-68
2023/03/02 05:02:00;;;;;;;6.10;5.50;;;21.50;48.30;;;;;;5051031;28;20303;-70
2023/03/02 05:04:49;;;;;;;6.95;6.22;;;21.50;48.40;;;;;;5050636;28;20682;-66
2023/03/02 05:07:37;;;;;;;7.40;6.28;;;21.90;48.60;;;;;;5051633;28;20568;-69
2023/03/02 05:10:27;;;;;;;6.93;6.22;;;21.50;48.40;;;;;;5050928;28;20225;-67
2023/03/02 05:13:15;;;;;;;6.95;6.00;;;21.60;48.40;;;;;;5050366;28;20298;-67
2023/03/02 05:16:05;;;;;;;7.35;6.03;;;21.50;48.30;;;;;;5049682;28;20343;-66
2023/03/02 05:18:53;;;;;;;8.07;6.20;;;21.50;48.40;;;;;;5050880;28;20520;-67
2023/03/02 05:21:41;;;;;;;7.60;6.07;;;21.70;48.50;;;;;;5049859;28;20253;-70
2023/03/02 05:24:29;;;;;;;7.28;5.63;;;21.40;48.30;;;;;;5049696;28;20283;-68
2023/03/02 05:27:17;;;;;;;7.22;6.30;;;21.30;48.20;;;;;;5032594;28;20683;-69
2023/03/02 05:30:06;;;;;;;6.15;5.57;;;21.40;48.30;;;;;;5031133;28;20237;-68
2023/03/02 05:32:56;;;;;;;9.40;6.55;;;21.50;48.40;;;;;;5030516;28;20274;-71
2023/03/02 05:35:44;;;;;;;7.07;6.05;;;21.40;48.30;;;;;;5031084;28;20206;-69
2023/03/02 05:38:33;;;;;;;8.75;6.18;;;21.40;48.30;;;;;;5031058;28;20670;-68
2023/03/02 05:41:21;;;;;;;7.63;6.40;;;21.40;48.30;;;;;;5031521;28;20222;-70
2023/03/02 05:44:11;;;;;;;8.07;6.22;;;21.00;48.00;;;;;;5031648;28;20259;-67
2023/03/02 05:46:59;;;;;;;7.00;5.78;;;21.30;48.40;;;;;;5030975;28;20285;-66
2023/03/02 05:49:48;;;;;;;7.28;5.57;;;21.00;48.20;;;;;;5031361;28;20226;-71
2023/03/02 05:52:36;;;;;;;6.85;6.15;;;21.10;48.40;;;;;;5031152;28;20308;-66
2023/03/02 05:55:24;;;;;;;6.45;5.63;;;21.20;48.40;;;;;;5031338;28;20202;-69
2023/03/02 05:58:14;;;;;;;8.00;6.30;;;21.30;48.60;;;;;;5042985;28;20627;-68
2023/03/02 06:01:07;;;;;;;6.47;5.85;;;21.20;65.80;;;;;;5030174;28;20304;-67
2023/03/02 06:03:55;;;;;;;8.65;6.53;;;21.30;48.60;;;;;;5030806;28;20202;-67
2023/03/02 06:06:45;;;;;;;7.55;5.78;;;21.50;48.60;;;;;;5030866;28;20714;-69
2023/03/02 06:09:33;;;;;;;8.15;6.45;;;21.40;48.50;;;;;;5030470;28;20534;-69
2023/03/02 06:12:21;;;;;;;7.75;6.95;;;21.40;48.50;;;;;;5031238;28;20661;-68
2023/03/02 06:15:09;;;;;;;6.07;5.47;;;21.40;48.40;;;;;;5029954;28;20344;-66
2023/03/02 06:17:58;;;;;;;7.18;6.47;;;21.60;48.50;;;;;;5030789;28;20332;-67
2023/03/02 06:20:46;;;;;;;9.23;6.28;;;21.60;48.30;;;;;;5030698;28;20218;-65
2023/03/02 06:23:35;;;;;;;7.18;6.45;;;21.40;48.10;;;;;;5030231;28;20206;-66
2023/03/02 06:26:23;;;;;;;8.90;6.88;;;21.70;48.40;;;;;;5029760;28;20742;-67
2023/03/02 06:29:11;;;;;;;8.63;7.13;;;21.60;48.30;;;;;;5030683;28;20574;-66
2023/03/02 06:32:00;;;;;;;7.88;7.07;;;21.30;48.00;;;;;;5039352;28;20708;-66
2023/03/02 06:34:48;;;;;;;6.13;5.53;;;21.40;48.10;;;;;;5052772;28;20233;-69
2023/03/02 06:37:36;;;;;;;8.15;6.45;;;21.70;48.40;;;;;;5053983;28;20197;-68
2023/03/02 06:40:25;;;;;;;8.07;7.22;;;21.90;48.50;;;;;;5042587;28;20254;-67
2023/03/02 06:43:14;;;;;;;7.65;6.13;;;21.80;48.60;;;;;;5033736;28;20284;-68
2023/03/02 06:46:02;;;;;;;8.80;7.90;;;21.60;48.40;;;;;;5033219;28;20283;-69
2023/03/02 06:48:51;;;;;;;8.43;7.57;;;21.50;48.40;;;;;;5034639;28;20205;-67
2023/03/02 06:51:39;;;;;;;8.00;7.10;;;21.60;48.60;;;;;;5032605;28;20221;-66
2023/03/02 06:54:27;;;;;;;9.43;7.50;;;21.30;48.40;;;;;;5051662;28;20223;-65
2023/03/02 06:57:16;;;;;;;7.57;6.88;;;21.40;48.50;;;;;;5062643;28;20244;-66
2023/03/02 07:00:08;;;;;;;8.93;7.57;;;21.40;48.60;;;;;;5049548;28;20213;-69
2023/03/02 07:02:56;;;;;;;9.77;7.03;;;21.40;48.60;;;;;;5047800;28;20271;-67
2023/03/02 07:05:47;;;;;;;8.00;6.80;;;21.50;48.80;;;;;;5052016;28;20201;-68
2023/03/02 07:08:35;;;;;;;8.00;7.20;;;21.50;48.40;;;;;;5053330;28;20228;-65
2023/03/02 07:11:23;;;;;;;7.35;6.47;;;21.50;48.90;;;;;;5053134;28;20374;-67
2023/03/02 07:14:13;;;;;;;9.77;7.15;;;21.40;48.80;;;;;;5043384;28;20323;-67
2023/03/02 07:17:03;;;;;;;7.88;6.97;;;21.60;49.00;;;;;;5053079;28;20285;-70
2023/03/02 07:19:51;;;;;;;8.40;7.20;;;21.60;48.90;;;;;;5052288;28;20213;-66
2023/03/02 07:22:40;;;;;;;7.53;5.50;;;21.60;48.80;;;;;;5033766;28;20821;-68
2023/03/02 07:25:28;;;;;;;9.77;7.85;;;21.60;48.90;;;;;;5049917;28;20670;-67
2023/03/02 07:28:16;;;;;;;9.65;8.65;;;21.30;48.60;;;;;;5052858;28;20202;-69
2023/03/02 07:31:06;;;;;;;10.68;8.52;;;21.50;65.60;;;;;;5053033;28;20202;-68
2023/03/02 07:33:54;;;;;;;13.10;8.57;;;21.70;48.90;;;;;;5052500;28;20586;-66
2023/03/02 07:36:42;;;;;;;11.88;8.15;;;21.60;48.80;;;;;;5052422;28;20280;-67
2023/03/02 07:39:30;;;;;;;10.00;7.60;;;21.40;48.70;;;;;;5051093;28;20221;-68
2023/03/02 07:42:18;;;;;;;10.93;7.82;;;21.50;48.90;;;;;;5051357;28;20257;-67
2023/03/02 07:45:07;;;;;;;13.20;8.57;;;21.50;49.00;;;;;;5051402;28;20255;-67
2023/03/02 07:47:57;;;;;;;8.75;7.32;;;21.50;48.90;;;;;;5048472;28;20208;-72
2023/03/02 07:50:45;;;;;;;10.68;7.93;;;21.40;49.10;;;;;;5033120;28;20261;-66
2023/03/02 07:53:33;;;;;;;10.52;7.93;;;21.40;49.00;;;;;;5034629;28;20686;-65
2023/03/02 07:56:21;;;;;;;9.30;6.95;;;21.40;49.10;;;;;;5049823;28;20233;-67
2023/03/02 07:59:10;;;;;;;9.50;7.28;;;21.50;49.20;;;;;;5038952;28;20255;-68
2023/03/02 08:01:58;;;;;;;9.15;7.45;;;21.30;49.10;;;;;;5052353;28;20306;-70
2023/03/02 08:04:48;;;;;;;10.05;6.88;;;21.50;49.20;;;;;;5053180;28;20631;-69
2023/03/02 08:07:36;;;;;;;10.27;7.38;;;21.50;49.10;;;;;;5050843;28;20197;-68
2023/03/02 08:10:24;;;;;;;8.38;7.57;;;21.60;49.10;;;;;;5047854;28;20677;-68
2023/03/02 08:13:12;;;;;;;11.20;8.20;;;21.60;49.00;;;;;;5042615;28;20303;-66
2023/03/02 08:16:01;;;;;;;9.30;6.93;;;21.70;49.10;;;;;;5044867;28;20233;-68
2023/03/02 08:18:49;;;;;;;9.68;7.53;;;21.60;49.00;;;;;;5043741;28;20198;-68
2023/03/02 08:21:39;;;;;;;9.70;6.82;;;21.70;49.10;;;;;;5047101;28;20225;-70
2023/03/02 08:24:27;;;;;;;8.57;7.30;;;21.60;49.10;;;;;;5045376;28;20770;-66
2023/03/02 08:27:15;;;;;;;8.88;6.78;;;21.60;49.20;;;;;;5049703;28;20198;-65
2023/03/02 08:30:04;;;;;;;7.30;6.60;;;21.40;49.00;;;;;;5050512;28;20701;-65
2023/03/02 08:32:52;;;;;;;7.55;6.57;;;21.60;49.20;;;;;;5051807;28;20221;-66
2023/03/02 08:35:41;;;;;;;7.15;6.13;;;21.40;49.00;;;;;;5051124;28;20880;-66
2023/03/02 08:38:31;;;;;;;8.65;6.40;;;21.70;49.30;;;;;;5050718;28;20220;-65
2023/03/02 08:41:21;;;;;;;7.30;6.10;;;21.70;49.30;;;;;;5030219;28;20230;-67
2023/03/02 08:44:09;;;;;;;7.97;6.30;;;21.80;49.30;;;;;;5036824;28;20205;-68
2023/03/02 08:46:57;;;;;;;8.93;6.70;;;21.80;49.30;;;;;;5051393;28;20204;-67
2023/03/02 08:49:45;;;;;;;11.65;7.45;;;21.90;49.40;;;;;;5045937;28;20288;-67
2023/03/02 08:52:35;;;;;;;11.65;7.38;;;21.80;49.60;;;;;;5036067;28;20737;-67
2023/03/02 08:55:24;;;;;;;7.80;6.95;;;21.90;49.70;;;;;;5045797;28;20201;-69
2023/03/02 08:58:12;;;;;;;8.68;6.68;;;21.90;49.70;;;;;;5048846;28;20251;-67
2023/03/02 09:01:01;;;;;;;9.13;6.88;;;21.70;57.30;;;;;;5051054;28;20225;-67
2023/03/02 09:03:49;;;;;;;8.52;6.60;;;21.90;49.70;;;;;;5051012;28;20217;-67
2023/03/02 09:06:40;;;;;;;8.02;6.63;;;21.90;49.90;;;;;;5050852;28;20225;-67
2023/03/02 09:09:29;;;;;;;9.20;6.80;;;21.90;50.00;;;;;;5049927;28;20209;-66
2023/03/02 09:12:18;;;;;;;8.35;6.57;;;21.90;50.60;;;;;;5051608;28;20777;-66
2023/03/02 09:15:07;;;;;;;8.82;6.57;;;22.00;50.10;;;;;;5050827;28;20204;-66
2023/03/02 09:17:55;;;;;;;7.95;6.45;;;21.80;50.00;;;;;;5050192;28;20251;-66
2023/03/02 09:20:43;;;;;;;7.55;5.95;;;21.30;49.60;;;;;;5050228;28;20804;-67
2023/03/02 09:23:32;;;;;;;7.97;5.43;;;21.70;50.00;;;;;;5050344;28;20202;-67
2023/03/02 09:26:20;;;;;;;7.05;5.93;;;21.90;50.30;;;;;;5050292;28;20205;-68
2023/03/02 09:29:10;;;;;;;8.68;6.63;;;21.80;50.20;;;;;;5051103;28;20975;-67
2023/03/02 09:31:58;;;;;;;7.68;6.18;;;22.10;50.50;;;;;;5050355;28;20259;-66
2023/03/02 09:34:46;;;;;;;9.38;7.43;;;21.90;50.20;;;;;;5049919;28;20193;-69
2023/03/02 09:37:37;;;;;;;8.63;6.45;;;21.80;50.10;;;;;;5049987;28;20254;-65
2023/03/02 09:40:27;;;;;;;8.13;6.63;;;21.80;50.20;;;;;;5051549;28;20205;-65
2023/03/02 09:43:31;;;;;;;8.15;6.45;;;21.80;50.50;;;;;;5051978;28;20690;-67
2023/03/02 09:46:26;;;;;;;10.38;6.72;;;21.70;50.40;;;;;;5052344;28;20227;-68
2023/03/02 09:49:27;;;;;;;7.30;5.60;;;21.80;50.60;;;;;;5051160;28;20208;-67
2023/03/02 09:52:28;;;;;;;7.03;5.93;;;21.90;50.60;;;;;;5052228;28;20249;-67
2023/03/02 09:55:18;;;;;;;6.32;5.20;;;21.80;50.50;;;;;;5052395;28;20205;-67
2023/03/02 09:58:14;;;;;;;8.38;6.18;;;21.90;50.60;;;;;;5051729;28;20344;-67
2023/03/02 10:01:09;;;;;;;7.03;6.30;;;21.80;63.10;;;;;;5052132;28;20278;-67
2023/03/02 10:04:07;;;;;;;6.65;5.80;;;22.00;50.50;;;;;;5052093;28;20205;-67
2023/03/02 10:07:01;;;;;;;8.40;7.07;;;22.10;50.60;;;;;;5033750;28;20212;-67
2023/03/02 10:09:49;;;;;;;6.90;5.72;;;22.10;50.60;;;;;;5053453;28;20233;-66
2023/03/02 10:12:46;;;;;;;9.63;6.28;;;22.10;50.50;;;;;;5055014;28;20300;-67
2023/03/02 10:15:40;;;;;;;6.22;5.55;;;22.20;50.60;;;;;;5053340;28;20282;-67
2023/03/02 10:18:32;;;;;;;9.15;6.70;;;22.20;50.70;;;;;;5054651;28;20205;-69
2023/03/02 10:21:26;;;;;;;9.73;7.07;;;22.20;50.60;;;;;;5054593;28;20306;-67
2023/03/02 10:24:23;;;;;;;7.95;6.03;;;22.20;50.50;;;;;;5054824;28;20197;-67
2023/03/02 10:27:17;;;;;;;8.93;6.28;;;22.20;50.50;;;;;;5033972;28;20734;-68
2023/03/02 10:30:15;;;;;;;9.23;7.25;;;22.10;50.50;;;;;;5041345;28;20206;-69
2023/03/02 10:33:09;;;;;;;8.93;6.65;;;22.10;50.60;;;;;;5054384;28;20267;-69
2023/03/02 10:35:59;;;;;;;13.20;6.90;;;22.10;51.40;;;;;;5054498;28;20294;-70
2023/03/02 10:38:49;;;;;;;12.35;7.20;;;22.00;50.80;;;;;;5053287;28;20201;-67
2023/03/02 10:41:44;;;;;;;7.78;6.53;;;22.00;50.90;;;;;;5052966;28;20272;-67
2023/03/02 10:44:36;;;;;;;7.25;6.18;;;22.00;50.90;;;;;;5053517;28;20201;-67
2023/03/02 10:47:26;;;;;;;7.93;6.22;;;22.00;51.10;;;;;;5043497;28;20582;-67
2023/03/02 10:50:22;;;;;;;8.45;6.50;;;21.90;51.10;;;;;;5052519;28;20201;-67
2023/03/02 10:53:17;;;;;;;8.57;7.35;;;21.90;51.00;;;;;;5054062;28;20218;-66
2023/03/02 10:56:18;;;;;;;11.10;7.65;;;22.00;51.10;;;;;;5037927;28;20198;-68
2023/03/02 10:59:29;;;;;;;8.65;6.97;;;22.00;51.00;;;;;;5053230;28;20196;-67
2023/03/02 11:02:22;;;;;;;8.10;6.30;;;22.00;51.20;;;;;;5054766;28;20302;-67
2023/03/02 11:05:23;;;;;;;9.10;6.70;;;22.00;51.10;;;;;;5053149;28;20336;-68
2023/03/02 11:08:17;;;;;;;7.13;6.10;;;22.10;51.20;;;;;;5053380;28;20208;-67
2023/03/02 11:11:21;;;;;;;11.60;7.05;;;22.20;63.60;;;;;;5053028;28;20284;-66
2023/03/02 11:14:15;;;;;;;11.30;6.53;;;22.10;51.10;;;;;;5033191;28;20571;-67
2023/03/02 11:17:24;;;;;;;8.38;6.68;;;22.10;51.00;;;;;;5033584;28;20251;-68
2023/03/02 11:20:16;;;;;;;8.35;6.53;;;22.20;51.00;;;;;;5034058;28;20682;-68
2023/03/02 11:23:16;;;;;;;8.20;6.63;;;22.20;51.00;;;;;;5032767;28;20280;-66
2023/03/02 11:26:14;;;;;;;7.57;6.00;;;22.20;50.90;;;;;;5033056;28;20698;-67
2023/03/02 11:29:09;;;;;;;9.70;7.20;;;22.20;50.80;;;;;;5034279;28;20672;-69
2023/03/02 11:32:05;;;;;;;9.45;6.15;;;22.20;50.70;;;;;;5053093;28;20274;-67
2023/03/02 11:34:58;;;;;;;7.32;6.30;;;22.20;50.80;;;;;;5053415;28;20202;-67
2023/03/02 11:37:49;;;;;;;10.95;7.60;;;22.10;50.70;;;;;;5051371;28;20697;-66
2023/03/02 11:40:45;;;;;;;8.10;6.43;;;22.10;50.80;;;;;;5051907;28;20205;-67
2023/03/02 11:43:35;;;;;;;7.93;6.50;;;22.00;50.80;;;;;;5053517;28;20221;-65
2023/03/02 11:46:26;;;;;;;10.30;7.80;;;22.00;50.80;;;;;;5052205;28;20288;-67
2023/03/02 11:49:20;;;;;;;8.82;6.50;;;21.90;51.10;;;;;;5046180;28;20204;-67
2023/03/02 11:52:17;;;;;;;11.70;7.40;;;21.90;51.20;;;;;;5043558;28;20291;-67
2023/03/02 11:55:17;;;;;;;10.50;7.93;;;21.90;51.30;;;;;;5043119;28;20282;-69
2023/03/02 11:58:05;;;;;;;9.48;7.40;;;22.00;51.30;;;;;;5044322;28;20646;-66
2023/03/02 12:00:55;;;;;;;10.75;7.82;;;22.10;61.60;;;;;;5052091;28;20201;-66
2023/03/02 12:03:44;;;;;;;10.05;7.50;;;22.00;51.60;;;;;;5033737;28;20280;-65
2023/03/02 12:06:39;;;;;;;9.60;7.78;;;22.00;51.50;;;;;;5032300;28;20198;-66
2023/03/02 12:09:36;;;;;;;9.98;8.23;;;22.10;51.50;;;;;;5036276;28;20252;-65
2023/03/02 12:12:40;;;;;;;9.27;8.07;;;22.20;51.50;;;;;;5052778;28;20221;-67
2023/03/02 12:15:40;;;;;;;8.93;7.10;;;22.20;51.40;;;;;;5052775;28;20276;-66
2023/03/02 12:18:44;;;;;;;14.63;6.97;;;22.30;51.30;;;;;;5051506;28;20209;-66
2023/03/02 12:21:40;;;;;;;13.30;7.03;;;22.30;51.20;;;;;;5051596;28;20713;-65
2023/03/02 12:24:30;;;;;;;8.93;7.95;;;22.30;51.30;;;;;;5051666;28;20654;-67
2023/03/02 12:27:25;;;;;;;11.30;7.50;;;22.20;51.20;;;;;;5051597;28;20343;-66
2023/03/02 12:30:25;;;;;;;7.47;6.18;;;22.20;51.40;;;;;;5051382;28;20205;-66
2023/03/02 12:33:21;;;;;;;8.93;7.15;;;22.20;51.40;;;;;;5051211;28;20221;-67
2023/03/02 12:36:17;;;;;;;10.05;7.25;;;22.00;51.90;;;;;;5050474;28;20530;-65
2023/03/02 12:39:23;;;;;;;9.23;6.80;;;22.10;51.50;;;;;;5050763;28;20282;-67
2023/03/02 12:42:37;;;;;;;7.47;6.47;;;22.00;51.40;;;;;;5052250;28;20317;-66
2023/03/02 12:45:37;;;;;;;13.98;7.60;;;22.00;51.60;;;;;;5051766;28;20240;-66
2023/03/02 12:48:30;;;;;;;9.55;6.80;;;22.00;51.70;;;;;;5050206;28;20207;-65
2023/03/02 12:51:22;;;;;;;8.10;6.45;;;22.00;51.60;;;;;;5052192;28;20240;-69
2023/03/02 12:54:14;;;;;;;10.23;6.45;;;22.00;51.80;;;;;;5051710;28;20693;-65
2023/03/02 12:57:07;;;;;;;7.07;6.38;;;22.00;51.70;;;;;;5049827;28;20263;-66
2023/03/02 12:59:58;;;;;;;8.35;6.93;;;22.00;51.70;;;;;;5030972;28;20698;-64
2023/03/02 13:02:48;;;;;;;11.18;7.32;;;22.10;51.80;;;;;;5041195;28;20222;-66
2023/03/02 13:05:37;;;;;;;7.38;6.68;;;22.10;51.60;;;;;;5044727;28;20567;-67
2023/03/02 13:08:28;;;;;;;8.13;6.10;;;22.10;51.70;;;;;;5050127;28;20559;-68
2023/03/02 13:11:22;;;;;;;8.65;6.10;;;22.10;51.60;;;;;;5050047;28;20221;-64
2023/03/02 13:14:19;;;;;;;7.30;5.97;;;22.20;51.60;;;;;;5051930;28;20194;-66
2023/03/02 13:17:21;;;;;;;7.45;5.78;;;22.20;51.60;;;;;;5052585;28;20557;-66
2023/03/02 13:20:13;;;;;;;7.80;6.28;;;22.20;51.70;;;;;;5045264;28;20403;-66
2023/03/02 13:23:01;;;;;;;6.55;5.93;;;22.30;51.70;;;;;;5042611;28;20221;-67
2023/03/02 13:25:53;;;;;;;7.38;6.68;;;22.30;51.70;;;;;;5041029;28;20241;-68
2023/03/02 13:28:41;;;;;;;8.50;6.60;;;22.20;51.60;;;;;;5041683;28;20209;-67
2023/03/02 13:31:30;;;;;;;11.18;6.32;;;22.20;51.80;;;;;;5041408;28;20217;-66
2023/03/02 13:34:22;;;;;;;8.40;6.40;;;22.10;51.80;;;;;;5050363;28;20197;-67
2023/03/02 13:37:20;;;;;;;9.50;6.63;;;22.10;51.80;;;;;;5041810;28;20201;-65
2023/03/02 13:40:32;;;;;;;9.05;6.70;;;22.00;51.60;;;;;;5044956;28;20341;-65
2023/03/02 13:43:37;;;;;;;7.10;5.97;;;22.00;51.80;;;;;;5044087;28;20237;-67
2023/03/02 13:46:28;;;;;;;7.10;5.53;;;21.90;51.70;;;;;;5045031;28;20194;-68
2023/03/02 13:49:26;;;;;;;6.13;5.50;;;21.80;51.90;;;;;;5051691;28;20201;-67
2023/03/02 13:52:20;;;;;;;7.47;5.38;;;21.70;52.30;;;;;;5055144;28;20217;-65
2023/03/02 13:55:13;;;;;;;5.85;5.25;;;21.70;52.40;;;;;;5053885;28;20197;-66
2023/03/02 13:58:02;;;;;;;6.65;5.10;;;21.70;52.70;;;;;;5055105;28;20224;-67
2023/03/02 14:00:52;;;;;;;7.05;5.25;;;21.90;52.70;;;;;;5054498;28;20205;-67
2023/03/02 14:03:40;;;;;;;7.03;5.25;;;21.60;52.40;;;;;;5054528;28;20327;-66
2023/03/02 14:06:28;;;;;;;5.82;5.32;;;21.70;52.50;;;;;;5054182;28;20335;-67
2023/03/02 14:09:16;;;;;;;5.40;4.85;;;21.60;52.50;;;;;;5055356;28;20625;-67
2023/03/02 14:12:06;;;;;;;6.65;5.63;;;21.50;52.40;;;;;;5054310;28;20330;-66
2023/03/02 14:14:57;;;;;;;5.43;4.55;;;21.60;52.30;;;;;;5054795;28;20747;-66
2023/03/02 14:17:48;;;;;;;6.13;4.82;;;21.60;52.50;;;;;;5054586;28;20208;-66
2023/03/02 14:20:36;;;;;;;5.15;4.65;;;21.70;52.50;;;;;;5035082;28;20223;-67
2023/03/02 14:23:24;;;;;;;6.25;4.35;;;21.70;52.60;;;;;;5034719;28;20964;-69
2023/03/02 14:26:29;;;;;;;5.18;4.60;;;21.70;52.60;;;;;;5034412;28;20279;-69
2023/03/02 14:29:22;;;;;;;5.57;4.65;;;21.70;52.40;;;;;;5034598;28;20230;-66
2023/03/02 14:32:12;;;;;;;5.50;5.00;;;21.70;52.50;;;;;;5034413;28;20293;-66
2023/03/02 14:35:01;;;;;;;5.32;4.80;;;21.70;52.30;;;;;;5033970;28;20225;-66
2023/03/02 14:37:49;;;;;;;6.75;4.68;;;21.70;52.40;;;;;;5037596;28;20275;-66
2023/03/02 14:40:38;;;;;;;5.72;4.40;;;21.70;52.50;;;;;;5044997;28;20683;-65
2023/03/02 14:43:26;;;;;;;5.68;4.68;;;21.60;52.50;;;;;;5043698;28;20248;-67
2023/03/02 14:46:14;;;;;;;4.55;4.15;;;21.70;52.40;;;;;;5042449;28;20213;-64
2023/03/02 14:49:03;;;;;;;5.25;4.50;;;21.70;52.60;;;;;;5033367;28;20295;-68